Time;durP1;ratioP1;P1;durP2;ratioP2;P2;SDS_P1;SDS_P2;PMS_P1;PMS_P2;Temp;Humidity;BMP_temperature;BMP_pressure;BME280_temperature;BME280_humidity;BME280_pressure;Samples;Min_cycle;Max_cycle;Signal;HPM_P1;HPM_P2
2023/09/15 00:00:54;;;;;;;12.57;6.30;;;12.70;99.90;;;;;;5008489;28;20469;-67
2023/09/15 00:03:22;;;;;;;11.40;6.70;;;12.60;99.90;;;;;;5008962;28;20458;-67
2023/09/15 00:05:50;;;;;;;12.80;6.13;;;12.50;99.90;;;;;;5008908;28;20438;-67
2023/09/15 00:08:18;;;;;;;12.37;6.67;;;12.50;99.90;;;;;;5008701;28;20462;-67
2023/09/15 00:10:48;;;;;;;13.27;6.30;;;12.30;99.90;;;;;;5009403;28;20444;-67
2023/09/15 00:13:16;;;;;;;14.17;6.10;;;12.40;99.90;;;;;;5008570;28;20531;-67
2023/09/15 00:15:44;;;;;;;11.40;6.17;;;12.30;99.90;;;;;;5008818;28;20478;-66
2023/09/15 00:18:12;;;;;;;11.13;5.87;;;12.40;99.90;;;;;;5008102;28;20473;-68
2023/09/15 00:20:40;;;;;;;11.37;6.30;;;12.40;99.90;;;;;;5005125;28;20456;-67
2023/09/15 00:23:08;;;;;;;11.60;6.10;;;12.40;99.90;;;;;;5009269;28;20527;-67
2023/09/15 00:25:36;;;;;;;14.23;6.67;;;12.30;99.90;;;;;;5008859;28;20457;-68
2023/09/15 00:28:09;;;;;;;11.80;6.03;;;12.20;99.90;;;;;;5008933;28;20465;-67
2023/09/15 00:30:39;;;;;;;13.37;6.30;;;12.10;99.90;;;;;;5009163;28;20475;-67
2023/09/15 00:33:06;;;;;;;13.30;6.80;;;12.10;99.90;;;;;;5009941;28;20450;-67
2023/09/15 00:35:35;;;;;;;14.40;7.27;;;12.20;99.90;;;;;;5009494;28;20849;-66
2023/09/15 00:38:03;;;;;;;13.70;7.40;;;12.10;99.90;;;;;;5009060;28;20547;-67
2023/09/15 00:40:31;;;;;;;12.10;6.63;;;12.20;99.90;;;;;;5008851;28;20460;-67
2023/09/15 00:43:00;;;;;;;13.63;6.83;;;12.10;99.90;;;;;;5009119;28;20460;-67
2023/09/15 00:45:29;;;;;;;14.30;6.67;;;12.10;99.90;;;;;;5008982;28;20456;-67
2023/09/15 00:47:57;;;;;;;13.23;6.20;;;12.10;99.90;;;;;;5007774;28;20479;-67
2023/09/15 00:50:29;;;;;;;11.67;6.40;;;12.00;99.90;;;;;;5008593;28;21186;-67
2023/09/15 00:53:01;;;;;;;12.33;5.90;;;12.00;99.90;;;;;;5009089;28;20494;-68
2023/09/15 00:55:30;;;;;;;13.00;6.87;;;11.90;99.90;;;;;;5010656;28;20488;-67
2023/09/15 00:58:02;;;;;;;11.90;6.20;;;11.90;99.90;;;;;;5011901;28;20608;-66
2023/09/15 01:00:32;;;;;;;17.73;7.27;;;11.90;99.90;;;;;;5012111;28;20508;-67
2023/09/15 01:03:02;;;;;;;11.97;6.87;;;11.90;99.90;;;;;;5012448;28;20503;-67
2023/09/15 01:05:30;;;;;;;15.33;7.00;;;11.90;99.90;;;;;;5012427;28;20864;-67
2023/09/15 01:07:58;;;;;;;13.27;6.43;;;11.90;99.90;;;;;;5011828;28;20497;-67
2023/09/15 01:10:26;;;;;;;12.30;6.30;;;11.90;99.90;;;;;;5011933;28;20481;-67
2023/09/15 01:12:55;;;;;;;12.10;6.43;;;11.90;99.90;;;;;;5012034;28;20485;-67
2023/09/15 01:15:30;;;;;;;12.73;6.57;;;11.80;99.90;;;;;;5012314;28;20481;-67
2023/09/15 01:18:17;;;;;;;11.80;5.63;;;11.90;99.90;;;;;;5011817;28;20515;-67
2023/09/15 01:21:17;;;;;;;12.63;6.03;;;11.80;99.90;;;;;;5004444;28;20445;-67
2023/09/15 01:24:20;;;;;;;11.30;6.03;;;11.80;99.90;;;;;;4963324;28;20477;-67
2023/09/15 01:27:08;;;;;;;12.47;6.20;;;11.90;99.90;;;;;;5006909;28;20789;-66
2023/09/15 01:29:45;;;;;;;12.10;6.53;;;12.10;99.90;;;;;;5010901;28;21204;-68
2023/09/15 01:32:15;;;;;;;12.57;6.80;;;12.00;99.90;;;;;;5012253;28;20449;-68
2023/09/15 01:34:48;;;;;;;13.93;7.47;;;11.90;99.90;;;;;;5011826;28;20569;-67
2023/09/15 01:37:17;;;;;;;12.73;7.00;;;11.80;99.90;;;;;;5007809;28;21025;-68
2023/09/15 01:39:44;;;;;;;14.00;6.80;;;11.80;99.90;;;;;;5011844;28;20460;-67
2023/09/15 01:42:13;;;;;;;14.33;7.20;;;11.80;99.90;;;;;;5011977;28;21023;-67
2023/09/15 01:44:42;;;;;;;14.47;6.80;;;11.80;99.90;;;;;;5012285;28;20477;-68
2023/09/15 01:47:16;;;;;;;13.03;7.03;;;11.90;99.90;;;;;;5011345;28;20505;-67
2023/09/15 01:49:44;;;;;;;14.10;7.20;;;11.80;99.90;;;;;;5011466;28;20537;-67
2023/09/15 01:52:13;;;;;;;11.90;6.50;;;11.80;99.90;;;;;;5010883;28;20456;-67
2023/09/15 01:54:41;;;;;;;12.87;7.00;;;11.70;99.90;;;;;;5003590;28;20874;-67
2023/09/15 01:57:09;;;;;;;12.87;6.10;;;11.80;99.90;;;;;;5009956;28;20855;-67
2023/09/15 01:59:38;;;;;;;11.67;5.80;;;11.80;99.90;;;;;;5011229;28;20528;-68
2023/09/15 02:02:07;;;;;;;12.30;5.50;;;11.80;99.90;;;;;;5010006;28;20450;-65
2023/09/15 02:04:35;;;;;;;16.40;7.40;;;11.80;99.90;;;;;;5010798;28;20877;-67
2023/09/15 02:07:03;;;;;;;14.67;6.97;;;11.70;99.90;;;;;;5010723;28;20477;-66
2023/09/15 02:09:31;;;;;;;14.00;6.60;;;11.70;99.90;;;;;;5010955;28;20470;-66
2023/09/15 02:11:59;;;;;;;13.03;6.10;;;11.70;99.90;;;;;;5011415;28;20479;-67
2023/09/15 02:14:28;;;;;;;16.70;7.47;;;11.60;99.90;;;;;;5011242;28;20960;-67
2023/09/15 02:16:55;;;;;;;13.73;7.00;;;11.50;99.90;;;;;;5010142;28;20866;-67
2023/09/15 02:19:25;;;;;;;11.00;6.20;;;11.40;99.90;;;;;;5011058;28;20614;-67
2023/09/15 02:21:53;;;;;;;15.33;6.90;;;11.40;99.90;;;;;;5011137;28;20459;-67
2023/09/15 02:24:21;;;;;;;14.17;6.90;;;11.40;99.90;;;;;;5011213;28;20454;-67
2023/09/15 02:26:49;;;;;;;15.20;7.30;;;11.40;99.90;;;;;;5010265;28;20580;-67
2023/09/15 02:29:17;;;;;;;13.17;7.23;;;11.40;99.90;;;;;;5010493;28;20966;-66
2023/09/15 02:31:45;;;;;;;12.30;6.40;;;11.40;99.90;;;;;;5011047;28;20480;-66
2023/09/15 02:34:13;;;;;;;13.30;7.37;;;11.40;99.90;;;;;;5010953;28;20841;-66
2023/09/15 02:36:43;;;;;;;13.10;7.23;;;11.40;99.90;;;;;;5010286;28;20860;-68
2023/09/15 02:39:11;;;;;;;12.87;5.87;;;11.40;99.90;;;;;;5010781;28;20449;-67
2023/09/15 02:41:39;;;;;;;14.30;7.20;;;11.40;99.90;;;;;;5010781;28;20488;-67
2023/09/15 02:44:09;;;;;;;12.73;6.60;;;11.40;99.90;;;;;;5010934;28;20514;-67
2023/09/15 02:46:37;;;;;;;11.83;6.47;;;11.40;99.90;;;;;;5010089;28;20456;-67
2023/09/15 02:49:06;;;;;;;13.60;7.70;;;11.40;99.90;;;;;;5010262;28;20838;-67
2023/09/15 02:51:34;;;;;;;14.40;7.27;;;11.40;99.90;;;;;;5010501;28;20495;-67
2023/09/15 02:54:03;;;;;;;14.20;6.97;;;11.40;99.90;;;;;;5010641;28;20463;-66
2023/09/15 02:56:32;;;;;;;13.20;7.07;;;11.30;99.90;;;;;;5009975;28;20480;-67
2023/09/15 02:59:00;;;;;;;13.83;6.03;;;11.30;99.90;;;;;;5010370;28;20504;-67
2023/09/15 03:01:28;;;;;;;11.50;5.97;;;11.30;99.90;;;;;;5010638;28;20457;-67
2023/09/15 03:03:56;;;;;;;12.60;6.77;;;11.30;99.90;;;;;;5010563;28;20506;-66
2023/09/15 03:06:24;;;;;;;12.13;6.67;;;11.20;99.90;;;;;;5009886;28;20461;-67
2023/09/15 03:08:51;;;;;;;14.63;7.30;;;11.10;99.90;;;;;;5010218;28;20507;-67
2023/09/15 03:11:22;;;;;;;14.77;6.57;;;11.10;99.90;;;;;;5010348;28;20446;-67
2023/09/15 03:13:50;;;;;;;11.70;7.10;;;11.00;99.90;;;;;;5010221;28;20455;-66
2023/09/15 03:16:18;;;;;;;13.47;8.00;;;11.00;99.90;;;;;;5010110;28;20514;-67
2023/09/15 03:18:46;;;;;;;15.43;7.70;;;11.10;99.90;;;;;;5009554;28;20468;-67
2023/09/15 03:21:15;;;;;;;15.60;8.07;;;11.20;99.90;;;;;;5010614;28;20502;-67
2023/09/15 03:23:43;;;;;;;13.57;7.23;;;11.20;99.90;;;;;;5010098;28;20455;-67
2023/09/15 03:26:12;;;;;;;12.40;6.73;;;11.20;99.90;;;;;;5009860;28;21048;-65
2023/09/15 03:28:42;;;;;;;12.90;6.87;;;11.20;99.90;;;;;;5009527;28;20821;-67
2023/09/15 03:31:10;;;;;;;12.07;5.73;;;11.30;99.90;;;;;;5010266;28;20443;-67
2023/09/15 03:33:38;;;;;;;13.17;6.23;;;11.30;99.90;;;;;;5009671;28;20453;-68
2023/09/15 03:36:07;;;;;;;13.17;6.63;;;11.20;99.90;;;;;;5009292;28;20488;-65
2023/09/15 03:38:35;;;;;;;12.13;6.60;;;11.20;99.90;;;;;;5009215;28;20511;-67
2023/09/15 03:41:04;;;;;;;11.93;6.17;;;11.20;99.90;;;;;;5009849;28;20483;-67
2023/09/15 03:43:33;;;;;;;14.23;6.47;;;11.10;99.90;;;;;;5009804;28;20538;-67
2023/09/15 03:46:03;;;;;;;12.57;6.80;;;11.30;99.90;;;;;;5009878;28;20526;-67
2023/09/15 03:48:32;;;;;;;13.60;7.53;;;11.20;99.90;;;;;;5009258;28;21240;-67
2023/09/15 03:51:00;;;;;;;14.20;7.57;;;11.10;99.90;;;;;;5009215;28;20981;-67
2023/09/15 03:53:28;;;;;;;13.60;7.30;;;11.00;99.90;;;;;;5009691;28;20514;-67
2023/09/15 03:55:56;;;;;;;14.27;7.40;;;11.00;99.90;;;;;;5008788;28;20515;-66
2023/09/15 03:58:24;;;;;;;11.83;7.00;;;11.00;99.90;;;;;;5008382;28;20472;-67
2023/09/15 04:00:52;;;;;;;14.50;7.20;;;10.90;99.90;;;;;;5009474;28;20505;-67
2023/09/15 04:03:22;;;;;;;14.60;7.90;;;10.90;99.90;;;;;;5008936;28;20559;-67
2023/09/15 04:05:51;;;;;;;14.53;8.03;;;10.90;99.90;;;;;;5008950;28;20472;-67
2023/09/15 04:08:19;;;;;;;13.00;7.27;;;10.90;99.90;;;;;;5006159;28;20507;-66
2023/09/15 04:10:46;;;;;;;15.40;8.70;;;10.90;99.90;;;;;;5001609;28;20864;-68
2023/09/15 04:13:15;;;;;;;14.53;8.67;;;10.90;99.90;;;;;;5007706;28;20446;-69
2023/09/15 04:15:43;;;;;;;13.50;7.23;;;11.10;99.90;;;;;;5007578;28;20456;-68
2023/09/15 04:18:11;;;;;;;15.30;8.00;;;11.00;99.90;;;;;;5008124;28;20507;-69
2023/09/15 04:20:40;;;;;;;12.43;7.17;;;10.90;99.90;;;;;;5008992;28;20493;-69
2023/09/15 04:23:13;;;;;;;14.00;7.60;;;10.90;99.90;;;;;;5009172;28;20862;-70
2023/09/15 04:25:42;;;;;;;12.90;7.10;;;10.90;99.90;;;;;;5009375;28;20527;-70
2023/09/15 04:28:10;;;;;;;14.10;7.63;;;10.80;99.90;;;;;;5008690;28;20494;-70
2023/09/15 04:30:38;;;;;;;16.17;7.13;;;10.90;99.90;;;;;;5012704;28;20460;-72
2023/09/15 04:33:06;;;;;;;15.13;8.27;;;10.90;99.90;;;;;;5013275;28;20443;-72
2023/09/15 04:35:34;;;;;;;12.90;7.17;;;10.90;99.90;;;;;;5011114;28;20460;-69
2023/09/15 04:38:03;;;;;;;15.70;7.03;;;10.90;99.90;;;;;;5012408;28;20494;-70
2023/09/15 04:40:31;;;;;;;12.17;6.67;;;10.90;99.90;;;;;;5012765;28;20452;-69
2023/09/15 04:42:59;;;;;;;11.73;6.70;;;10.80;99.90;;;;;;5011462;28;20457;-70
2023/09/15 04:45:27;;;;;;;12.93;6.60;;;11.00;99.90;;;;;;5012330;28;20541;-68
2023/09/15 04:47:55;;;;;;;13.93;6.67;;;10.90;99.90;;;;;;5010912;28;20475;-67
2023/09/15 04:50:24;;;;;;;13.70;6.63;;;10.90;99.90;;;;;;5010538;28;20462;-67
2023/09/15 04:52:52;;;;;;;14.27;7.60;;;10.90;99.90;;;;;;5012506;28;20530;-67
2023/09/15 04:55:21;;;;;;;13.07;7.53;;;10.90;99.90;;;;;;5012713;28;20452;-67
2023/09/15 04:57:49;;;;;;;14.27;6.87;;;10.90;99.90;;;;;;5011949;28;20496;-67
2023/09/15 05:00:23;;;;;;;14.27;7.13;;;10.90;99.90;;;;;;5011824;28;20510;-68
2023/09/15 05:02:51;;;;;;;14.07;8.43;;;10.80;99.90;;;;;;5005474;28;20440;-67
2023/09/15 05:05:19;;;;;;;13.47;7.60;;;10.80;99.90;;;;;;5012788;28;20455;-67
2023/09/15 05:07:47;;;;;;;19.53;7.70;;;10.90;99.90;;;;;;5003840;28;20566;-68
2023/09/15 05:10:15;;;;;;;19.43;7.90;;;11.10;99.90;;;;;;5012331;28;20466;-68
2023/09/15 05:12:45;;;;;;;14.97;7.70;;;11.30;99.90;;;;;;5012642;28;20519;-66
2023/09/15 05:15:13;;;;;;;12.47;6.80;;;11.20;99.90;;;;;;5012546;28;20480;-68
2023/09/15 05:17:41;;;;;;;13.10;7.27;;;11.20;99.90;;;;;;5011626;28;20480;-66
2023/09/15 05:20:09;;;;;;;12.90;7.47;;;11.20;99.90;;;;;;5010579;28;20543;-67
2023/09/15 05:22:37;;;;;;;13.40;7.33;;;11.10;99.90;;;;;;5010176;28;20459;-67
2023/09/15 05:25:07;;;;;;;13.23;7.30;;;11.20;99.90;;;;;;5012000;28;20559;-67
2023/09/15 05:27:35;;;;;;;14.23;6.73;;;11.20;99.90;;;;;;5011029;28;20473;-67
2023/09/15 05:30:06;;;;;;;11.47;6.50;;;11.20;99.90;;;;;;5010161;28;20467;-66
2023/09/15 05:32:34;;;;;;;14.10;7.03;;;11.20;99.90;;;;;;5010313;28;20860;-67
2023/09/15 05:35:02;;;;;;;11.90;6.83;;;11.10;99.90;;;;;;5011014;28;20445;-66
2023/09/15 05:37:30;;;;;;;12.50;6.47;;;11.20;99.90;;;;;;5010721;28;20598;-68
2023/09/15 05:39:58;;;;;;;13.77;8.00;;;11.20;99.90;;;;;;5010409;28;20469;-67
2023/09/15 05:42:26;;;;;;;15.23;8.10;;;11.10;99.90;;;;;;5010763;28;20466;-67
2023/09/15 05:44:54;;;;;;;13.70;7.50;;;11.10;99.90;;;;;;5011742;28;20465;-67
2023/09/15 05:47:24;;;;;;;15.53;7.67;;;11.10;99.90;;;;;;5011275;28;20615;-68
2023/09/15 05:49:52;;;;;;;15.60;7.63;;;11.10;99.90;;;;;;5012231;28;20467;-68
2023/09/15 05:52:20;;;;;;;16.23;8.20;;;11.20;99.90;;;;;;5011938;28;20440;-68
2023/09/15 05:54:48;;;;;;;16.13;8.83;;;11.20;99.90;;;;;;5003706;28;20470;-68
2023/09/15 05:57:16;;;;;;;17.50;8.60;;;11.20;99.90;;;;;;5011223;28;20991;-67
2023/09/15 05:59:44;;;;;;;14.83;8.07;;;11.30;99.90;;;;;;5011639;28;20478;-67
2023/09/15 06:02:13;;;;;;;14.67;8.63;;;11.40;99.90;;;;;;5011609;28;20448;-67
2023/09/15 06:04:48;;;;;;;14.10;7.67;;;11.50;99.90;;;;;;5011608;28;20950;-67
2023/09/15 06:07:17;;;;;;;15.03;8.27;;;11.60;99.90;;;;;;5011253;28;20468;-67
2023/09/15 06:09:47;;;;;;;15.67;7.40;;;11.60;99.90;;;;;;5011525;28;20476;-67
2023/09/15 06:12:15;;;;;;;13.83;7.60;;;11.60;99.90;;;;;;5011451;28;20485;-67
2023/09/15 06:14:43;;;;;;;17.37;8.30;;;11.70;99.90;;;;;;5011557;28;20452;-66
2023/09/15 06:17:12;;;;;;;15.10;8.77;;;11.80;99.90;;;;;;5011088;28;20496;-70
2023/09/15 06:19:40;;;;;;;13.50;7.60;;;12.00;99.90;;;;;;5011339;28;20464;-68
2023/09/15 06:22:10;;;;;;;14.83;6.70;;;12.20;99.90;;;;;;5011587;28;21012;-69
2023/09/15 06:24:37;;;;;;;16.67;7.57;;;12.30;99.90;;;;;;5011075;28;20454;-69
2023/09/15 06:27:05;;;;;;;13.63;6.70;;;12.30;99.90;;;;;;5010721;28;20610;-69
2023/09/15 06:29:33;;;;;;;17.20;7.23;;;12.50;99.90;;;;;;5011192;28;20453;-68
2023/09/15 06:32:01;;;;;;;14.33;7.33;;;12.70;99.90;;;;;;5011293;28;20500;-69
2023/09/15 06:34:30;;;;;;;13.53;7.30;;;12.70;99.90;;;;;;5011054;28;20456;-69
2023/09/15 06:36:58;;;;;;;14.23;7.43;;;12.80;99.90;;;;;;5010469;28;20508;-69
2023/09/15 06:39:27;;;;;;;15.17;6.73;;;12.70;99.90;;;;;;5010742;28;20482;-69
2023/09/15 06:41:55;;;;;;;14.93;7.57;;;12.80;99.90;;;;;;5011196;28;20491;-69
2023/09/15 06:44:23;;;;;;;12.47;7.13;;;12.90;99.90;;;;;;5011028;28;20489;-69
2023/09/15 06:46:51;;;;;;;14.83;7.23;;;13.00;99.90;;;;;;5002655;28;20533;-69
2023/09/15 06:49:21;;;;;;;12.20;6.83;;;13.20;99.90;;;;;;5010967;28;20545;-68
2023/09/15 06:51:50;;;;;;;15.40;7.47;;;13.30;99.90;;;;;;5002835;28;20442;-67
2023/09/15 06:54:18;;;;;;;15.70;7.20;;;13.40;99.90;;;;;;5010966;28;20449;-67
2023/09/15 06:56:47;;;;;;;13.63;7.40;;;13.50;99.90;;;;;;5010046;28;20472;-67
2023/09/15 06:59:15;;;;;;;14.03;7.00;;;13.60;99.90;;;;;;5010554;28;20511;-68
2023/09/15 07:01:43;;;;;;;12.47;6.17;;;13.70;99.90;;;;;;5010598;28;20458;-66
2023/09/15 07:04:13;;;;;;;13.00;6.60;;;13.80;99.90;;;;;;5010732;28;20454;-68
2023/09/15 07:06:41;;;;;;;14.07;6.23;;;14.00;99.90;;;;;;5009743;28;20879;-68
2023/09/15 07:09:09;;;;;;;12.00;7.50;;;14.10;99.90;;;;;;5010693;28;20517;-68
2023/09/15 07:11:37;;;;;;;12.60;6.67;;;14.10;99.90;;;;;;5010402;28;20854;-68
2023/09/15 07:14:06;;;;;;;15.70;7.60;;;14.20;99.90;;;;;;5010674;28;20470;-68
2023/09/15 07:16:35;;;;;;;15.40;7.73;;;14.20;99.90;;;;;;5009680;28;20451;-67
2023/09/15 07:19:03;;;;;;;16.27;8.33;;;14.30;99.90;;;;;;5010374;28;20547;-68
2023/09/15 07:21:33;;;;;;;11.80;7.23;;;14.30;99.90;;;;;;5010158;28;20966;-67
2023/09/15 07:24:01;;;;;;;16.43;6.33;;;14.30;99.90;;;;;;5010799;28;20503;-68
2023/09/15 07:26:29;;;;;;;13.83;7.63;;;14.50;99.90;;;;;;5009558;28;20533;-68
2023/09/15 07:28:57;;;;;;;16.13;7.90;;;14.50;99.90;;;;;;5010122;28;20469;-67
2023/09/15 07:31:27;;;;;;;12.27;6.77;;;14.60;99.90;;;;;;5010094;28;20456;-68
2023/09/15 07:33:55;;;;;;;12.53;7.30;;;14.70;99.90;;;;;;5002517;28;20434;-67
2023/09/15 07:36:23;;;;;;;15.77;7.23;;;14.80;99.90;;;;;;5009795;28;20446;-67
2023/09/15 07:38:52;;;;;;;15.90;7.10;;;14.90;99.90;;;;;;5009933;28;20552;-67
2023/09/15 07:41:20;;;;;;;15.20;7.87;;;15.00;99.90;;;;;;5010091;28;20579;-68
2023/09/15 07:43:48;;;;;;;13.90;6.70;;;15.10;99.90;;;;;;5009778;28;20458;-68
2023/09/15 07:46:17;;;;;;;13.97;7.20;;;15.30;99.90;;;;;;5009504;28;20489;-67
2023/09/15 07:48:46;;;;;;;12.93;6.47;;;15.30;99.90;;;;;;5010062;28;20468;-68
2023/09/15 07:51:15;;;;;;;13.90;7.60;;;15.40;99.90;;;;;;5009864;28;21010;-68
2023/09/15 07:53:44;;;;;;;14.27;6.97;;;15.50;99.90;;;;;;5009851;28;20539;-67
2023/09/15 07:56:13;;;;;;;13.23;7.00;;;15.60;99.90;;;;;;5009655;28;20452;-68
2023/09/15 07:58:40;;;;;;;12.80;6.50;;;15.70;99.90;;;;;;5009502;28;20508;-68
2023/09/15 08:01:09;;;;;;;13.95;7.25;;;15.90;99.90;;;;;;5009692;28;20529;-67
2023/09/15 08:03:38;;;;;;;12.63;6.80;;;16.00;99.90;;;;;;5009489;28;20670;-65
2023/09/15 08:06:09;;;;;;;13.97;7.07;;;16.10;99.90;;;;;;5009702;28;20457;-66
2023/09/15 08:08:37;;;;;;;11.87;6.20;;;16.30;99.90;;;;;;5009603;28;20516;-68
2023/09/15 08:11:05;;;;;;;12.97;6.63;;;16.50;99.90;;;;;;5009468;28;20529;-68
2023/09/15 08:13:32;;;;;;;11.70;6.47;;;16.60;99.90;;;;;;5009782;28;20529;-67
2023/09/15 08:16:01;;;;;;;11.00;6.27;;;16.70;99.90;;;;;;5009249;28;20445;-68
2023/09/15 08:18:29;;;;;;;12.10;6.40;;;16.80;99.90;;;;;;5009349;28;20490;-67
2023/09/15 08:20:57;;;;;;;11.80;6.60;;;17.00;99.90;;;;;;5009673;28;20442;-67
2023/09/15 08:23:26;;;;;;;11.93;6.50;;;17.10;99.90;;;;;;5009488;28;20523;-68
2023/09/15 08:25:54;;;;;;;12.07;6.37;;;17.20;99.90;;;;;;5008999;28;21000;-67
2023/09/15 08:28:23;;;;;;;11.50;5.90;;;17.30;99.90;;;;;;5009118;28;21234;-68
2023/09/15 08:30:51;;;;;;;12.63;7.03;;;17.40;99.90;;;;;;5009457;28;20508;-68
2023/09/15 08:33:19;;;;;;;12.83;6.37;;;17.60;99.90;;;;;;5009804;28;20458;-68
2023/09/15 08:35:47;;;;;;;12.90;7.23;;;17.70;99.90;;;;;;5008935;28;20514;-67
2023/09/15 08:38:15;;;;;;;10.67;6.10;;;17.90;99.90;;;;;;5008909;28;20500;-68
2023/09/15 08:40:51;;;;;;;11.67;6.37;;;18.00;99.90;;;;;;5009170;28;20456;-68
2023/09/15 08:43:19;;;;;;;12.70;6.60;;;18.10;99.90;;;;;;5009550;28;20450;-67
2023/09/15 08:45:49;;;;;;;10.30;5.43;;;18.20;99.90;;;;;;5009241;28;21287;-67
2023/09/15 08:48:22;;;;;;;12.80;6.33;;;18.40;99.90;;;;;;5007753;28;20472;-68
2023/09/15 08:50:52;;;;;;;11.33;5.73;;;18.60;99.90;;;;;;5008005;28;20446;-68
2023/09/15 08:53:21;;;;;;;12.50;6.47;;;18.80;99.90;;;;;;5009148;28;20446;-67
2023/09/15 08:55:50;;;;;;;12.60;6.27;;;18.80;99.90;;;;;;5008930;28;20477;-67
2023/09/15 08:58:19;;;;;;;13.00;6.30;;;19.00;99.90;;;;;;5008760;28;20921;-67
2023/09/15 09:00:47;;;;;;;12.00;5.73;;;19.30;99.90;;;;;;5009126;28;20941;-67
2023/09/15 09:03:15;;;;;;;11.27;6.17;;;19.50;99.90;;;;;;5008990;28;20450;-68
2023/09/15 09:05:47;;;;;;;11.63;5.37;;;19.80;99.90;;;;;;5009110;28;20453;-67
2023/09/15 09:08:17;;;;;;;12.00;5.77;;;20.10;99.90;;;;;;5008647;28;20957;-69
2023/09/15 09:10:46;;;;;;;10.50;5.53;;;20.30;99.90;;;;;;5007969;28;20449;-69
2023/09/15 09:13:15;;;;;;;10.90;5.23;;;20.70;99.90;;;;;;5008766;28;20508;-69
2023/09/15 09:16:02;;;;;;;12.30;5.40;;;20.90;99.90;;;;;;5010347;28;20440;-69
2023/09/15 09:18:30;;;;;;;11.97;5.93;;;21.30;99.90;;;;;;5012196;28;20465;-68
2023/09/15 09:20:58;;;;;;;12.70;5.43;;;21.70;99.90;;;;;;5012629;28;20537;-68
2023/09/15 09:23:26;;;;;;;10.67;5.77;;;21.90;99.90;;;;;;5012442;28;20450;-69
2023/09/15 09:25:54;;;;;;;11.70;6.27;;;22.20;99.90;;;;;;5012106;28;20520;-69
2023/09/15 09:28:23;;;;;;;9.93;5.90;;;22.40;99.90;;;;;;5012138;28;20476;-68
2023/09/15 09:30:54;;;;;;;9.87;5.60;;;22.50;99.90;;;;;;5012420;28;20922;-69
2023/09/15 09:33:23;;;;;;;10.60;6.53;;;22.60;99.90;;;;;;5012599;28;20438;-68
2023/09/15 09:35:51;;;;;;;11.93;6.10;;;22.60;99.90;;;;;;5011969;28;20442;-68
2023/09/15 09:38:19;;;;;;;9.77;5.20;;;22.70;99.90;;;;;;5011949;28;20472;-67
2023/09/15 09:40:47;;;;;;;11.03;6.07;;;22.80;99.90;;;;;;5011881;28;20484;-69
2023/09/15 09:43:15;;;;;;;10.50;5.60;;;23.00;99.90;;;;;;5012289;28;20442;-69
2023/09/15 09:45:49;;;;;;;11.60;6.20;;;23.20;99.90;;;;;;5012095;28;20464;-68
2023/09/15 09:48:17;;;;;;;13.50;7.23;;;23.40;99.90;;;;;;5011960;28;20506;-68
2023/09/15 09:50:49;;;;;;;11.23;6.07;;;23.20;99.90;;;;;;5012130;28;20444;-68
2023/09/15 09:53:27;;;;;;;10.90;6.00;;;23.60;99.90;;;;;;5011880;28;20438;-68
2023/09/15 09:55:56;;;;;;;9.80;5.27;;;23.80;99.90;;;;;;5003685;28;20499;-68
2023/09/15 09:58:24;;;;;;;11.40;6.50;;;23.90;99.90;;;;;;5011500;28;20469;-68
2023/09/15 10:00:54;;;;;;;10.40;5.93;;;24.30;99.90;;;;;;5011603;28;20481;-68
2023/09/15 10:03:22;;;;;;;11.63;6.87;;;24.80;99.90;;;;;;5011813;28;20446;-68
2023/09/15 10:05:52;;;;;;;13.30;5.37;;;24.80;99.90;;;;;;5011333;28;20445;-67
2023/09/15 10:08:20;;;;;;;12.97;7.87;;;24.80;99.90;;;;;;5011532;28;20466;-67
2023/09/15 10:10:50;;;;;;;11.50;6.40;;;24.60;99.90;;;;;;5011867;28;20454;-68
2023/09/15 10:13:18;;;;;;;13.83;7.10;;;24.50;99.90;;;;;;5011573;28;20450;-67
2023/09/15 10:15:48;;;;;;;11.73;6.07;;;24.40;99.90;;;;;;5011443;28;20450;-68
2023/09/15 10:18:19;;;;;;;12.10;5.10;;;24.70;99.90;;;;;;5011047;28;21100;-68
2023/09/15 10:20:50;;;;;;;9.77;5.10;;;24.90;99.90;;;;;;5011601;28;20493;-68
2023/09/15 10:23:18;;;;;;;9.80;5.60;;;25.30;99.90;;;;;;5011740;28;20533;-68
2023/09/15 10:25:49;;;;;;;9.50;4.70;;;25.80;99.90;;;;;;5011351;28;20497;-68
2023/09/15 10:28:18;;;;;;;15.40;7.07;;;25.90;99.90;;;;;;5011100;28;20493;-68
2023/09/15 10:31:06;;;;;;;10.17;5.70;;;26.10;99.90;;;;;;5004946;28;20431;-68
2023/09/15 10:33:42;;;;;;;11.73;6.40;;;26.40;99.90;;;;;;5011554;28;20447;-68
2023/09/15 10:36:14;;;;;;;12.73;6.67;;;26.90;97.30;;;;;;5011377;28;20438;-68
2023/09/15 10:38:45;;;;;;;12.13;6.50;;;26.30;97.30;;;;;;5010992;28;20476;-68
2023/09/15 10:41:28;;;;;;;12.17;6.53;;;26.00;99.60;;;;;;5011060;28;20480;-69
2023/09/15 10:43:58;;;;;;;11.50;6.83;;;26.00;97.80;;;;;;5011036;28;20925;-67
2023/09/15 10:46:36;;;;;;;11.00;6.00;;;26.20;97.30;;;;;;5010525;28;20529;-67
2023/09/15 10:49:16;;;;;;;10.87;6.80;;;26.50;98.10;;;;;;5010961;28;20517;-67
2023/09/15 10:51:54;;;;;;;11.23;6.37;;;26.50;95.80;;;;;;5010601;28;20524;-67
2023/09/15 10:54:25;;;;;;;9.70;5.40;;;27.10;96.70;;;;;;5010914;28;20525;-67
2023/09/15 10:56:55;;;;;;;10.30;5.87;;;27.90;95.10;;;;;;5010089;28;20442;-67
2023/09/15 10:59:23;;;;;;;10.37;6.20;;;28.60;91.90;;;;;;5010833;28;20557;-66
2023/09/15 11:01:51;;;;;;;9.97;5.90;;;28.80;89.10;;;;;;5010564;28;20454;-67
2023/09/15 11:04:21;;;;;;;10.20;5.70;;;28.60;87.60;;;;;;5010594;28;20446;-67
2023/09/15 11:06:51;;;;;;;9.60;4.80;;;28.70;90.30;;;;;;5010100;28;20442;-67
2023/09/15 11:09:21;;;;;;;10.57;5.23;;;29.30;86.20;;;;;;5010561;28;20979;-67
2023/09/15 11:11:51;;;;;;;8.87;5.10;;;28.90;85.50;;;;;;5010369;28;20815;-67
2023/09/15 11:14:20;;;;;;;11.40;6.03;;;29.20;83.10;;;;;;5010482;28;20516;-68
2023/09/15 11:16:50;;;;;;;10.17;5.40;;;29.40;79.40;;;;;;5009948;28;20458;-68
2023/09/15 11:19:21;;;;;;;10.73;5.80;;;28.90;81.80;;;;;;5010580;28;20450;-68
2023/09/15 11:21:49;;;;;;;11.10;6.30;;;29.40;79.80;;;;;;5010232;28;20568;-69
2023/09/15 11:24:18;;;;;;;10.77;5.40;;;28.90;81.40;;;;;;5010176;28;20446;-70
2023/09/15 11:26:48;;;;;;;10.90;5.47;;;29.50;82.70;;;;;;5009566;28;20484;-65
2023/09/15 11:29:17;;;;;;;10.63;5.50;;;29.90;77.80;;;;;;5010496;28;20484;-68
2023/09/15 11:31:46;;;;;;;10.60;5.17;;;30.20;78.60;;;;;;5010491;28;20523;-68
2023/09/15 11:34:15;;;;;;;9.70;5.57;;;30.80;73.20;;;;;;5010614;28;20453;-66
2023/09/15 11:36:45;;;;;;;9.83;5.10;;;31.30;71.10;;;;;;5007372;28;20473;-71
2023/09/15 11:39:15;;;;;;;9.10;4.80;;;32.00;69.40;;;;;;5008830;28;20959;-67
2023/09/15 11:41:51;;;;;;;9.80;5.40;;;32.80;62.70;;;;;;5009482;28;20489;-70
2023/09/15 11:44:19;;;;;;;10.00;5.23;;;32.50;61.10;;;;;;5010135;28;20461;-70
2023/09/15 11:46:48;;;;;;;9.40;5.37;;;32.50;59.90;;;;;;5009879;28;20474;-68
2023/09/15 11:49:18;;;;;;;9.30;5.43;;;32.40;59.30;;;;;;5010321;28;20450;-68
2023/09/15 11:51:48;;;;;;;9.97;5.30;;;32.80;61.80;;;;;;5007593;28;20930;-69
2023/09/15 11:54:17;;;;;;;10.33;5.20;;;33.70;58.90;;;;;;5010197;28;20441;-67
2023/09/15 11:56:46;;;;;;;8.97;4.57;;;34.10;54.90;;;;;;5007291;28;20442;-68
2023/09/15 11:59:15;;;;;;;9.43;4.57;;;33.10;55.80;;;;;;5006866;28;20541;-68
2023/09/15 12:01:45;;;;;;;8.60;4.90;;;33.40;55.80;;;;;;5008926;28;20576;-67
2023/09/15 12:04:15;;;;;;;8.33;4.37;;;32.50;53.90;;;;;;5008719;28;20496;-66
2023/09/15 12:06:45;;;;;;;9.90;4.50;;;31.40;57.50;;;;;;5008527;28;20519;-69
2023/09/15 12:09:15;;;;;;;9.00;4.87;;;32.60;57.40;;;;;;5009582;28;20446;-68
2023/09/15 12:11:45;;;;;;;8.10;4.23;;;34.10;54.60;;;;;;5008705;28;20452;-68
2023/09/15 12:14:13;;;;;;;7.93;4.10;;;35.30;50.20;;;;;;5009542;28;20617;-68
2023/09/15 12:16:45;;;;;;;8.60;4.20;;;35.70;49.00;;;;;;5008184;28;20457;-67
2023/09/15 12:19:16;;;;;;;8.60;4.27;;;35.20;48.00;;;;;;5009494;28;20562;-68
2023/09/15 12:21:52;;;;;;;8.37;4.30;;;35.50;48.20;;;;;;5008184;28;20509;-67
2023/09/15 12:24:23;;;;;;;9.47;3.90;;;35.60;45.20;;;;;;5007623;28;20491;-67
2023/09/15 12:26:54;;;;;;;9.47;4.40;;;35.70;47.10;;;;;;5007572;28;20534;-66
2023/09/15 12:29:22;;;;;;;8.40;4.20;;;35.90;44.70;;;;;;5009140;28;20473;-68
2023/09/15 12:31:54;;;;;;;8.40;4.17;;;35.50;46.60;;;;;;5009387;28;20454;-67
2023/09/15 12:34:24;;;;;;;10.63;4.67;;;36.30;45.90;;;;;;5009909;28;20444;-69
2023/09/15 12:36:53;;;;;;;8.30;3.93;;;36.70;43.30;;;;;;5009339;28;20441;-69
2023/09/15 12:39:22;;;;;;;8.37;3.90;;;36.90;43.50;;;;;;5010350;28;20834;-69
2023/09/15 12:42:01;;;;;;;7.63;3.70;;;37.40;42.50;;;;;;5009566;28;20481;-70
2023/09/15 12:44:42;;;;;;;10.67;4.23;;;37.90;42.40;;;;;;5009619;28;20500;-70
2023/09/15 12:47:10;;;;;;;7.77;3.10;;;38.70;41.80;;;;;;5009304;28;20466;-69
2023/09/15 12:49:39;;;;;;;8.07;4.00;;;39.30;38.90;;;;;;5010645;28;20499;-70